Time;durP1;ratioP1;P1;durP2;ratioP2;P2;SDS_P1;SDS_P2;PMS_P1;PMS_P2;Temp;Humidity;BMP_temperature;BMP_pressure;BME280_temperature;BME280_humidity;BME280_pressure;Samples;Min_cycle;Max_cycle;Signal;HPM_P1;HPM_P2
2021/10/18 00:01:59;;;;;;;16.20;10.57;;;7.10;99.90;;;;;;5049447;28;20204;-71
2021/10/18 00:04:26;;;;;;;14.68;9.90;;;7.20;99.90;;;;;;5048864;28;20204;-71
2021/10/18 00:06:53;;;;;;;18.63;12.13;;;7.20;99.90;;;;;;5048637;28;20613;-71
2021/10/18 00:09:20;;;;;;;16.05;10.75;;;7.20;99.90;;;;;;5049032;28;20201;-71
2021/10/18 00:11:47;;;;;;;16.70;10.70;;;7.20;99.90;;;;;;5049078;28;20201;-71
2021/10/18 00:14:15;;;;;;;19.75;11.38;;;7.20;99.90;;;;;;5048686;28;20217;-72
2021/10/18 00:16:42;;;;;;;18.90;11.35;;;7.20;99.90;;;;;;5048492;28;20951;-71
2021/10/18 00:19:09;;;;;;;18.98;11.60;;;7.20;99.90;;;;;;5048937;28;20907;-71
2021/10/18 00:21:36;;;;;;;19.48;10.80;;;7.10;99.90;;;;;;5048633;28;20204;-71
2021/10/18 00:24:03;;;;;;;19.60;12.52;;;7.20;99.90;;;;;;5121830;22;20204;-95
2021/10/18 00:26:30;;;;;;;19.42;12.20;;;7.20;99.90;;;;;;5098173;28;20184;-95
2021/10/18 00:28:57;;;;;;;18.38;12.00;;;7.20;99.90;;;;;;5098317;28;20214;-92
2021/10/18 00:31:29;;;;;;;19.08;11.68;;;7.20;99.90;;;;;;5098548;22;20235;-69
2021/10/18 00:33:56;;;;;;;18.70;12.10;;;7.20;99.90;;;;;;5092217;28;20405;-69
2021/10/18 00:36:23;;;;;;;21.15;13.18;;;7.20;99.90;;;;;;5091599;28;20224;-70
2021/10/18 00:38:50;;;;;;;15.90;10.50;;;7.20;99.90;;;;;;5074955;28;20201;-70
2021/10/18 00:41:19;;;;;;;20.95;13.30;;;7.20;99.90;;;;;;5071646;28;20220;-69
2021/10/18 00:43:47;;;;;;;20.88;12.27;;;7.30;99.90;;;;;;5072147;28;20566;-69
2021/10/18 00:46:14;;;;;;;21.33;12.10;;;7.30;99.90;;;;;;5070966;28;20225;-69
2021/10/18 00:48:42;;;;;;;22.25;13.18;;;7.30;99.90;;;;;;5072113;28;20303;-69
2021/10/18 00:51:11;;;;;;;19.20;12.25;;;7.30;99.90;;;;;;5071333;28;20197;-68
2021/10/18 00:53:38;;;;;;;20.95;12.60;;;7.30;99.90;;;;;;5071685;28;20558;-69
2021/10/18 00:56:05;;;;;;;19.83;12.15;;;7.30;99.90;;;;;;5071332;28;20722;-69
2021/10/18 00:58:32;;;;;;;19.90;12.20;;;7.30;99.90;;;;;;5071783;28;20204;-69
2021/10/18 01:00:59;;;;;;;22.88;14.00;;;7.30;99.90;;;;;;5071890;28;20220;-69
2021/10/18 01:03:26;;;;;;;19.10;12.27;;;7.30;99.90;;;;;;5071427;28;20200;-70
2021/10/18 01:05:54;;;;;;;17.75;11.18;;;7.30;99.90;;;;;;5070898;28;20224;-69
2021/10/18 01:08:21;;;;;;;20.88;12.90;;;7.30;99.90;;;;;;5071504;28;20251;-70
2021/10/18 01:10:48;;;;;;;21.52;12.95;;;7.30;99.90;;;;;;5071761;28;20197;-70
2021/10/18 01:13:15;;;;;;;18.45;12.20;;;7.40;99.90;;;;;;5070931;28;20557;-69
2021/10/18 01:15:42;;;;;;;22.80;14.52;;;7.40;99.90;;;;;;5070937;28;20227;-70
2021/10/18 01:18:09;;;;;;;23.52;14.23;;;7.40;99.90;;;;;;5071117;28;20204;-69
2021/10/18 01:20:39;;;;;;;21.45;12.88;;;7.40;99.90;;;;;;5070963;28;20228;-69
2021/10/18 01:23:07;;;;;;;20.77;13.27;;;7.30;99.90;;;;;;5071131;28;20208;-68
2021/10/18 01:25:34;;;;;;;22.85;13.93;;;7.40;99.90;;;;;;5070766;28;20224;-69
2021/10/18 01:28:01;;;;;;;21.65;12.10;;;7.40;99.90;;;;;;5070499;28;20227;-70
2021/10/18 01:30:28;;;;;;;19.10;12.60;;;7.40;99.90;;;;;;5070694;28;20216;-69
2021/10/18 01:32:55;;;;;;;21.45;13.15;;;7.40;99.90;;;;;;5071038;28;20287;-68
2021/10/18 01:35:22;;;;;;;23.63;13.95;;;7.40;99.90;;;;;;5070560;28;20231;-69
2021/10/18 01:37:50;;;;;;;20.95;13.65;;;7.40;99.90;;;;;;5070457;28;20200;-68
2021/10/18 01:40:21;;;;;;;20.75;13.95;;;7.40;99.90;;;;;;5070836;28;20657;-69
2021/10/18 01:42:49;;;;;;;25.35;13.98;;;7.40;99.90;;;;;;5070706;28;20230;-69
2021/10/18 01:45:18;;;;;;;27.60;14.80;;;7.40;99.90;;;;;;5070645;28;20223;-69
2021/10/18 01:47:45;;;;;;;23.52;13.50;;;7.50;99.90;;;;;;5070079;28;20207;-70
2021/10/18 01:50:14;;;;;;;24.25;14.95;;;7.50;99.90;;;;;;5070578;28;20249;-68
2021/10/18 01:52:42;;;;;;;26.23;14.85;;;7.50;99.90;;;;;;5070690;28;20206;-69
2021/10/18 01:55:11;;;;;;;23.73;15.65;;;7.40;99.90;;;;;;5070444;28;20224;-69
2021/10/18 01:57:38;;;;;;;26.85;15.75;;;7.40;99.90;;;;;;5070053;28;20200;-69
2021/10/18 02:00:06;;;;;;;30.67;15.25;;;7.40;99.90;;;;;;5070655;28;20212;-69
2021/10/18 02:02:32;;;;;;;25.63;16.83;;;7.40;99.90;;;;;;5073905;28;20231;-69
2021/10/18 02:04:59;;;;;;;25.80;15.73;;;7.40;99.90;;;;;;5074500;28;20228;-69
2021/10/18 02:07:26;;;;;;;26.70;15.18;;;7.40;99.90;;;;;;5074087;28;20208;-69
2021/10/18 02:09:53;;;;;;;26.88;16.08;;;7.50;99.90;;;;;;5074608;28;20228;-70
2021/10/18 02:12:22;;;;;;;26.33;14.90;;;7.50;99.90;;;;;;5074501;28;20232;-69
2021/10/18 02:14:48;;;;;;;24.25;15.15;;;7.40;99.90;;;;;;5074782;28;20228;-70
2021/10/18 02:17:15;;;;;;;29.58;16.45;;;7.40;99.90;;;;;;5075607;28;20203;-70
2021/10/18 02:19:42;;;;;;;24.02;14.57;;;7.40;99.90;;;;;;5075322;28;20207;-70
2021/10/18 02:22:09;;;;;;;21.45;13.85;;;7.40;99.90;;;;;;5074897;28;20207;-71
2021/10/18 02:24:36;;;;;;;22.90;13.68;;;7.40;99.90;;;;;;5074859;28;20247;-69
2021/10/18 02:27:03;;;;;;;22.40;14.32;;;7.30;99.90;;;;;;5074410;28;20227;-70
2021/10/18 02:29:31;;;;;;;23.70;13.45;;;7.30;99.90;;;;;;5074600;28;20223;-70
2021/10/18 02:31:57;;;;;;;24.63;13.55;;;7.40;99.90;;;;;;5074652;28;20209;-70
2021/10/18 02:34:24;;;;;;;23.85;14.18;;;7.40;99.90;;;;;;5074310;28;20208;-70
2021/10/18 02:36:51;;;;;;;22.35;14.02;;;7.40;99.90;;;;;;5074006;28;20207;-69
2021/10/18 02:39:17;;;;;;;23.67;14.55;;;7.40;99.90;;;;;;5074332;28;20228;-70
2021/10/18 02:41:44;;;;;;;26.10;16.23;;;7.40;99.90;;;;;;5074445;28;20220;-69
2021/10/18 02:44:11;;;;;;;30.35;13.73;;;7.40;99.90;;;;;;5074169;28;20752;-68
2021/10/18 02:46:39;;;;;;;26.27;14.68;;;7.30;99.90;;;;;;5074197;28;20232;-69
2021/10/18 02:49:06;;;;;;;24.77;13.65;;;7.20;99.90;;;;;;5074450;28;20200;-70
2021/10/18 02:51:33;;;;;;;25.17;15.40;;;7.20;99.90;;;;;;5074376;28;20192;-69
2021/10/18 02:54:02;;;;;;;24.80;13.20;;;7.20;99.90;;;;;;5074381;28;20203;-70
2021/10/18 02:56:29;;;;;;;23.38;13.95;;;7.20;99.90;;;;;;5073260;28;20339;-69
2021/10/18 02:58:55;;;;;;;23.45;13.95;;;7.20;99.90;;;;;;5073649;28;20200;-69
2021/10/18 03:01:22;;;;;;;22.08;13.27;;;7.20;99.90;;;;;;5073401;28;20228;-70
2021/10/18 03:03:50;;;;;;;28.08;15.82;;;7.20;99.90;;;;;;5073602;28;20202;-69
2021/10/18 03:06:17;;;;;;;26.65;15.90;;;7.20;99.90;;;;;;5072642;28;20220;-69
2021/10/18 03:08:43;;;;;;;24.55;14.55;;;7.20;99.90;;;;;;5073817;28;20208;-69
2021/10/18 03:11:10;;;;;;;24.35;14.27;;;7.20;99.90;;;;;;5073348;28;20196;-69
2021/10/18 03:13:37;;;;;;;25.33;14.25;;;7.30;99.90;;;;;;5072806;28;20611;-69
2021/10/18 03:16:04;;;;;;;25.65;14.60;;;7.30;99.90;;;;;;5072836;28;20247;-70
2021/10/18 03:18:31;;;;;;;23.33;14.25;;;7.30;99.90;;;;;;5073359;28;20204;-69
2021/10/18 03:20:59;;;;;;;25.25;14.70;;;7.30;99.90;;;;;;5073283;28;20278;-70
2021/10/18 03:23:25;;;;;;;27.05;14.30;;;7.30;99.90;;;;;;5072954;28;20286;-69
2021/10/18 03:25:52;;;;;;;25.98;13.82;;;7.30;99.90;;;;;;5072924;28;20235;-70
2021/10/18 03:28:19;;;;;;;32.08;15.82;;;7.30;99.90;;;;;;5072986;28;20212;-69
2021/10/18 03:30:45;;;;;;;25.02;14.40;;;7.30;99.90;;;;;;5073122;28;20259;-68
2021/10/18 03:33:12;;;;;;;24.85;14.38;;;7.30;99.90;;;;;;5071921;28;20188;-69
2021/10/18 03:35:39;;;;;;;28.38;16.42;;;7.30;99.90;;;;;;5072274;28;20216;-69
2021/10/18 03:38:07;;;;;;;21.08;13.00;;;7.30;99.90;;;;;;5072908;28;20201;-70
2021/10/18 03:40:34;;;;;;;25.73;14.43;;;7.40;99.90;;;;;;5069822;28;20220;-69
2021/10/18 03:43:01;;;;;;;29.55;15.10;;;7.40;99.90;;;;;;5072891;28;20196;-69
2021/10/18 03:45:28;;;;;;;26.67;16.10;;;7.40;99.90;;;;;;5072472;28;20220;-70
2021/10/18 03:47:55;;;;;;;26.20;14.95;;;7.40;99.90;;;;;;5069938;28;20196;-68
2021/10/18 03:50:21;;;;;;;28.95;16.67;;;7.30;99.90;;;;;;5072526;28;20196;-68
2021/10/18 03:52:48;;;;;;;24.77;15.00;;;7.40;99.90;;;;;;5072411;28;20201;-69
2021/10/18 03:55:16;;;;;;;22.17;14.32;;;7.40;99.90;;;;;;5069264;28;20219;-69
2021/10/18 03:57:43;;;;;;;27.60;14.70;;;7.40;99.90;;;;;;5068356;28;20271;-69
2021/10/18 04:00:11;;;;;;;26.98;14.93;;;7.40;99.90;;;;;;5061849;28;20575;-69
2021/10/18 04:02:38;;;;;;;23.30;13.90;;;7.40;99.90;;;;;;5069098;28;20199;-69
2021/10/18 04:05:05;;;;;;;24.58;15.23;;;7.40;99.90;;;;;;5071787;28;20711;-69
2021/10/18 04:07:32;;;;;;;25.42;15.00;;;7.40;99.90;;;;;;5070508;28;20192;-68
2021/10/18 04:09:58;;;;;;;28.80;15.40;;;7.40;99.90;;;;;;5072047;28;20686;-70
2021/10/18 04:12:26;;;;;;;23.77;14.73;;;7.40;99.90;;;;;;5070868;28;20193;-69
2021/10/18 04:14:53;;;;;;;29.00;14.57;;;7.40;99.90;;;;;;5069352;28;20710;-69
2021/10/18 04:17:20;;;;;;;26.02;14.07;;;7.40;99.90;;;;;;5069559;28;20200;-71
2021/10/18 04:19:46;;;;;;;26.73;14.98;;;7.40;99.90;;;;;;5070606;28;20193;-68
2021/10/18 04:22:13;;;;;;;23.55;13.63;;;7.40;99.90;;;;;;5071772;28;20238;-70
2021/10/18 04:24:40;;;;;;;23.05;14.40;;;7.40;99.90;;;;;;5070796;28;20216;-69
2021/10/18 04:27:06;;;;;;;26.63;15.32;;;7.40;99.90;;;;;;5070319;28;20200;-69
2021/10/18 04:29:34;;;;;;;25.50;13.75;;;7.40;99.90;;;;;;5070523;28;20204;-69
2021/10/18 04:32:01;;;;;;;24.00;14.63;;;7.40;99.90;;;;;;5069851;28;20188;-69
2021/10/18 04:34:28;;;;;;;25.25;13.73;;;7.40;99.90;;;;;;5070361;28;20204;-69
2021/10/18 04:36:56;;;;;;;19.90;11.90;;;7.40;99.90;;;;;;5069497;28;20207;-69
2021/10/18 04:39:23;;;;;;;28.63;14.57;;;7.40;99.90;;;;;;5079828;28;20200;-69
2021/10/18 04:41:50;;;;;;;28.58;16.45;;;7.50;99.90;;;;;;5074834;28;20216;-69
2021/10/18 04:44:16;;;;;;;28.77;14.75;;;7.50;99.90;;;;;;5068284;28;20208;-69
2021/10/18 04:46:45;;;;;;;28.35;15.30;;;7.60;99.90;;;;;;5070202;28;20212;-69
2021/10/18 04:49:11;;;;;;;24.60;14.15;;;7.70;99.90;;;;;;5070544;28;20668;-69
2021/10/18 04:51:38;;;;;;;27.17;16.27;;;7.70;99.90;;;;;;5070950;28;20204;-69
2021/10/18 04:54:05;;;;;;;27.17;16.17;;;7.60;99.90;;;;;;5070450;28;20200;-69
2021/10/18 04:56:31;;;;;;;25.23;14.20;;;7.60;99.90;;;;;;5069452;28;20232;-69
2021/10/18 04:58:58;;;;;;;26.05;16.13;;;7.60;99.90;;;;;;5070620;28;20211;-69
2021/10/18 05:01:25;;;;;;;27.13;15.75;;;7.60;99.90;;;;;;5071312;28;20707;-68
2021/10/18 05:03:53;;;;;;;22.17;12.88;;;7.50;99.90;;;;;;5070718;28;20592;-68
2021/10/18 05:06:20;;;;;;;21.80;13.07;;;7.50;99.90;;;;;;5069461;28;20220;-68
2021/10/18 05:08:46;;;;;;;22.38;16.17;;;7.60;99.90;;;;;;5070615;28;20266;-68
2021/10/18 05:11:13;;;;;;;21.98;11.55;;;7.50;99.90;;;;;;5070563;28;20480;-68
2021/10/18 05:13:40;;;;;;;20.48;13.05;;;7.50;99.90;;;;;;5070238;28;20197;-69
2021/10/18 05:16:07;;;;;;;22.00;13.43;;;7.60;99.90;;;;;;5069807;28;20224;-69
2021/10/18 05:18:33;;;;;;;20.50;12.30;;;7.60;99.90;;;;;;5070258;28;20203;-70
2021/10/18 05:21:05;;;;;;;21.42;12.75;;;7.60;99.90;;;;;;5070734;28;20244;-68
2021/10/18 05:23:32;;;;;;;25.05;14.10;;;7.60;99.90;;;;;;5069847;28;20262;-69
2021/10/18 05:25:59;;;;;;;24.65;12.98;;;7.60;99.90;;;;;;5069869;28;20229;-68
2021/10/18 05:28:26;;;;;;;21.52;12.90;;;7.60;99.90;;;;;;5069981;28;20204;-68
2021/10/18 05:30:52;;;;;;;21.10;14.13;;;7.60;99.90;;;;;;5070164;28;20617;-69
2021/10/18 05:33:19;;;;;;;19.33;12.82;;;7.60;99.90;;;;;;5070107;28;20204;-68
2021/10/18 05:35:46;;;;;;;21.38;13.70;;;7.60;99.90;;;;;;5068910;28;20231;-68
2021/10/18 05:38:17;;;;;;;21.45;13.32;;;7.70;99.90;;;;;;5070239;28;20231;-68
2021/10/18 05:40:44;;;;;;;20.40;13.05;;;7.70;99.90;;;;;;5070114;28;20690;-68
2021/10/18 05:43:11;;;;;;;20.27;12.77;;;7.70;99.90;;;;;;5070101;28;20579;-68
2021/10/18 05:45:37;;;;;;;20.25;13.05;;;7.70;99.90;;;;;;5069798;28;20230;-68
2021/10/18 05:48:06;;;;;;;18.52;12.65;;;7.70;99.90;;;;;;5069758;28;20606;-69
2021/10/18 05:50:36;;;;;;;22.13;13.75;;;7.70;99.90;;;;;;5069935;28;20196;-68
2021/10/18 05:53:03;;;;;;;21.77;12.50;;;7.60;99.90;;;;;;5069719;28;20207;-68
2021/10/18 05:55:31;;;;;;;18.55;12.40;;;7.60;99.90;;;;;;5069574;28;20707;-69
2021/10/18 05:58:00;;;;;;;21.00;12.48;;;7.60;99.90;;;;;;5069373;28;20668;-68
2021/10/18 06:00:28;;;;;;;20.15;12.98;;;7.70;99.90;;;;;;5069823;28;20200;-69
2021/10/18 06:02:55;;;;;;;22.05;13.50;;;7.60;99.90;;;;;;5070395;28;20231;-68
2021/10/18 06:05:23;;;;;;;21.58;13.30;;;7.70;99.90;;;;;;5069563;28;20247;-68
2021/10/18 06:07:50;;;;;;;19.88;13.23;;;7.70;99.90;;;;;;5069583;28;20679;-68
2021/10/18 06:10:17;;;;;;;23.90;14.82;;;7.70;99.90;;;;;;5069413;28;20205;-68
2021/10/18 06:12:45;;;;;;;18.52;12.13;;;7.70;99.90;;;;;;5070234;28;20196;-68
2021/10/18 06:15:13;;;;;;;19.60;12.90;;;7.80;99.90;;;;;;5069686;28;20223;-68
2021/10/18 06:17:41;;;;;;;21.30;13.10;;;7.80;99.90;;;;;;5069175;28;20206;-68
2021/10/18 06:20:10;;;;;;;24.08;14.57;;;7.80;99.90;;;;;;5069725;28;20235;-68
2021/10/18 06:22:36;;;;;;;20.30;13.40;;;7.80;99.90;;;;;;5069124;28;20784;-68
2021/10/18 06:25:03;;;;;;;21.05;12.85;;;7.80;99.90;;;;;;5140643;22;20228;-73
2021/10/18 06:27:30;;;;;;;20.55;13.00;;;7.70;99.90;;;;;;5068722;28;20570;-72
2021/10/18 06:29:58;;;;;;;22.17;12.95;;;7.70;99.90;;;;;;5069441;28;20200;-72
2021/10/18 06:32:25;;;;;;;19.85;13.35;;;7.70;99.90;;;;;;5069709;28;20695;-72
2021/10/18 06:34:53;;;;;;;18.58;12.95;;;7.80;99.90;;;;;;5068910;28;20231;-72
2021/10/18 06:37:20;;;;;;;19.40;13.23;;;7.80;99.90;;;;;;5069139;28;20683;-72
2021/10/18 06:39:46;;;;;;;22.42;13.98;;;7.80;99.90;;;;;;5069434;28;20223;-72
2021/10/18 06:42:13;;;;;;;23.73;13.98;;;7.80;99.90;;;;;;5069427;28;20216;-72
2021/10/18 06:44:40;;;;;;;20.67;12.88;;;7.80;99.90;;;;;;5069071;28;20613;-72
2021/10/18 06:47:09;;;;;;;19.83;13.15;;;7.80;99.90;;;;;;5068888;28;20891;-72
2021/10/18 06:49:36;;;;;;;21.40;14.10;;;7.90;99.90;;;;;;5072426;28;20208;-72
2021/10/18 06:52:03;;;;;;;22.23;14.43;;;7.80;99.90;;;;;;5072470;28;20196;-72
2021/10/18 06:54:36;;;;;;;22.25;13.65;;;7.90;99.90;;;;;;5072898;28;20291;-72
2021/10/18 06:57:03;;;;;;;19.02;13.18;;;7.80;99.90;;;;;;5071949;28;20204;-72
2021/10/18 06:59:31;;;;;;;22.70;14.60;;;7.80;99.90;;;;;;5073002;28;20678;-72
2021/10/18 07:01:58;;;;;;;19.10;13.00;;;7.80;99.90;;;;;;5070693;28;20227;-72
2021/10/18 07:04:29;;;;;;;19.08;13.93;;;7.90;99.90;;;;;;5072600;28;20196;-72
2021/10/18 07:06:56;;;;;;;23.48;15.13;;;7.90;99.90;;;;;;5072142;28;20242;-72
2021/10/18 07:09:24;;;;;;;18.65;13.40;;;8.00;99.90;;;;;;5072523;28;20200;-72
2021/10/18 07:11:51;;;;;;;21.80;13.30;;;8.00;99.90;;;;;;5072239;28;20301;-72
2021/10/18 07:14:18;;;;;;;22.13;13.77;;;8.00;99.90;;;;;;5063702;28;20270;-72
2021/10/18 07:16:45;;;;;;;18.90;13.90;;;8.00;99.90;;;;;;5070864;28;20196;-72
2021/10/18 07:19:12;;;;;;;18.80;13.70;;;8.10;99.90;;;;;;5071427;28;20212;-72
2021/10/18 07:21:42;;;;;;;20.55;13.45;;;8.10;99.90;;;;;;5071042;28;20630;-72
2021/10/18 07:24:10;;;;;;;23.02;14.85;;;8.00;99.90;;;;;;5070904;28;20227;-72
2021/10/18 07:26:37;;;;;;;18.42;14.73;;;8.00;99.90;;;;;;5070275;28;20220;-72
2021/10/18 07:29:05;;;;;;;20.98;15.07;;;8.00;99.90;;;;;;5070831;28;20319;-72
2021/10/18 07:31:32;;;;;;;22.13;14.38;;;8.00;99.90;;;;;;5071094;28;20308;-72
2021/10/18 07:34:04;;;;;;;19.05;13.88;;;8.00;99.90;;;;;;5070601;28;20196;-72
2021/10/18 07:36:34;;;;;;;20.08;14.10;;;7.90;99.90;;;;;;5070914;28;20235;-72
2021/10/18 07:39:05;;;;;;;20.17;14.93;;;7.90;99.90;;;;;;5070926;28;20674;-72
2021/10/18 07:41:33;;;;;;;24.25;13.93;;;7.90;99.90;;;;;;5071127;28;20310;-72
2021/10/18 07:44:03;;;;;;;22.58;14.27;;;7.80;99.90;;;;;;5067938;28;20258;-72
2021/10/18 07:46:30;;;;;;;23.50;15.35;;;7.80;99.90;;;;;;5070926;28;20212;-72
2021/10/18 07:48:58;;;;;;;21.15;14.52;;;7.80;99.90;;;;;;5071550;28;20726;-72
2021/10/18 07:51:25;;;;;;;22.13;14.50;;;7.80;99.90;;;;;;5070574;28;20204;-72
2021/10/18 07:53:52;;;;;;;20.20;13.63;;;7.80;99.90;;;;;;5070464;28;20687;-72
2021/10/18 07:56:21;;;;;;;21.50;14.65;;;7.70;99.90;;;;;;5070821;28;20228;-72
2021/10/18 07:58:49;;;;;;;21.30;14.38;;;7.70;99.90;;;;;;5069961;28;20215;-72
2021/10/18 08:01:17;;;;;;;20.80;14.85;;;7.70;99.90;;;;;;5070718;28;20196;-72
2021/10/18 08:03:45;;;;;;;17.58;12.85;;;7.80;99.90;;;;;;5069928;28;20913;-72
2021/10/18 08:06:12;;;;;;;25.75;14.52;;;7.70;99.90;;;;;;5069821;28;20231;-72
2021/10/18 08:08:44;;;;;;;20.15;13.45;;;7.70;99.90;;;;;;5068624;28;20223;-72
2021/10/18 08:11:11;;;;;;;18.65;13.75;;;7.80;99.90;;;;;;5071011;28;20204;-72
2021/10/18 08:13:41;;;;;;;20.38;13.60;;;7.90;99.90;;;;;;5070850;28;20198;-72
2021/10/18 08:16:08;;;;;;;20.75;13.80;;;8.00;99.90;;;;;;5069870;28;20223;-72
2021/10/18 08:18:35;;;;;;;19.27;13.70;;;8.00;99.90;;;;;;5071019;28;20602;-72
2021/10/18 08:21:02;;;;;;;20.40;13.32;;;8.00;99.90;;;;;;5070588;28;20315;-72
2021/10/18 08:23:29;;;;;;;21.20;13.65;;;8.00;99.90;;;;;;5062911;28;20718;-72
2021/10/18 08:25:56;;;;;;;21.73;13.82;;;8.00;99.90;;;;;;5067471;28;20231;-72
2021/10/18 08:28:23;;;;;;;24.33;13.98;;;8.00;99.90;;;;;;5070218;28;20250;-72
2021/10/18 08:30:51;;;;;;;21.85;14.10;;;8.00;99.90;;;;;;5070406;28;20247;-72
2021/10/18 08:33:18;;;;;;;21.48;13.32;;;8.00;99.90;;;;;;5070045;28;20238;-72
2021/10/18 08:35:45;;;;;;;19.67;13.02;;;8.10;99.90;;;;;;5069442;28;20231;-72
2021/10/18 08:38:18;;;;;;;21.98;15.02;;;8.20;99.90;;;;;;5070127;28;20204;-72
2021/10/18 08:40:48;;;;;;;17.60;13.60;;;8.10;99.90;;;;;;5069767;28;20197;-72
2021/10/18 08:43:31;;;;;;;16.77;12.45;;;8.20;99.90;;;;;;5070170;28;20721;-72
2021/10/18 08:45:59;;;;;;;18.58;13.27;;;8.10;99.90;;;;;;5068799;28;20233;-72
2021/10/18 08:48:26;;;;;;;17.67;12.90;;;8.10;99.90;;;;;;5070267;28;20597;-72
2021/10/18 08:50:52;;;;;;;20.27;13.15;;;8.00;99.90;;;;;;5070000;28;20579;-72
2021/10/18 08:53:19;;;;;;;17.90;12.88;;;8.10;99.90;;;;;;5069797;28;20193;-72
2021/10/18 08:55:46;;;;;;;21.67;13.40;;;8.20;99.90;;;;;;5069101;28;20212;-72
2021/10/18 08:58:13;;;;;;;19.80;13.43;;;8.20;99.90;;;;;;5068186;28;20564;-72
2021/10/18 09:00:41;;;;;;;18.83;13.57;;;8.20;99.90;;;;;;5070192;28;20274;-72
2021/10/18 09:03:22;;;;;;;18.05;12.50;;;8.30;99.90;;;;;;5068576;28;20224;-72
2021/10/18 09:05:50;;;;;;;17.60;12.68;;;8.30;99.90;;;;;;5069323;28;20220;-72
2021/10/18 09:08:37;;;;;;;17.75;12.73;;;8.30;99.90;;;;;;5070222;28;20204;-72
2021/10/18 09:11:12;;;;;;;18.45;12.18;;;8.30;99.90;;;;;;5068822;28;20214;-71
2021/10/18 09:13:44;;;;;;;17.90;12.23;;;8.30;99.90;;;;;;5069341;28;20306;-72
2021/10/18 09:16:31;;;;;;;19.15;12.57;;;8.40;99.90;;;;;;5068238;28;20783;-72
2021/10/18 09:19:01;;;;;;;19.33;14.23;;;8.50;99.90;;;;;;5068797;28;20196;-72
2021/10/18 09:21:29;;;;;;;20.83;13.05;;;8.50;99.90;;;;;;5068941;28;20207;-72
2021/10/18 09:23:56;;;;;;;19.20;12.93;;;8.50;99.90;;;;;;5067971;28;20220;-72
2021/10/18 09:26:25;;;;;;;18.73;12.77;;;8.50;99.90;;;;;;5069319;28;20699;-72
2021/10/18 09:28:56;;;;;;;18.92;12.93;;;8.50;99.90;;;;;;5069099;28;20415;-72
2021/10/18 09:31:25;;;;;;;18.55;13.50;;;8.50;99.90;;;;;;5069881;28;20202;-72
2021/10/18 09:33:57;;;;;;;17.70;12.00;;;8.50;99.90;;;;;;5069127;28;20204;-72
2021/10/18 09:36:31;;;;;;;20.70;13.43;;;8.50;99.90;;;;;;5069103;28;20224;-72
2021/10/18 09:39:17;;;;;;;23.25;14.27;;;8.60;99.90;;;;;;5069866;28;20222;-72
2021/10/18 09:41:45;;;;;;;19.50;13.40;;;8.60;99.90;;;;;;5066186;28;20200;-72
2021/10/18 09:44:31;;;;;;;23.67;13.77;;;8.60;99.90;;;;;;5068480;28;20609;-72
2021/10/18 10:55:34;;;;;;;15.02;12.02;;;10.60;99.90;;;;;;5045727;28;20378;-72
2021/10/18 10:58:23;;;;;;;16.00;12.18;;;10.70;99.90;;;;;;5045914;28;20676;-72
2021/10/18 11:00:50;;;;;;;15.73;11.95;;;10.70;99.90;;;;;;5041275;28;20579;-72
2021/10/18 11:03:40;;;;;;;17.17;11.80;;;10.80;99.90;;;;;;5050817;28;20570;-72
2021/10/18 11:06:12;;;;;;;16.90;12.15;;;11.30;99.90;;;;;;5039411;28;20350;-71
2021/10/18 11:08:41;;;;;;;13.50;10.10;;;11.80;99.90;;;;;;5050201;28;20228;-72
2021/10/18 11:11:10;;;;;;;13.68;11.02;;;12.40;99.90;;;;;;5052279;28;20205;-72
2021/10/18 11:13:54;;;;;;;15.00;11.57;;;13.20;99.90;;;;;;5051834;28;20582;-72
2021/10/18 11:16:24;;;;;;;15.32;11.40;;;14.10;99.90;;;;;;5052234;28;20248;-72
2021/10/18 11:18:54;;;;;;;12.00;9.10;;;15.00;99.90;;;;;;5051311;28;20204;-72
2021/10/18 11:21:22;;;;;;;14.30;10.93;;;16.00;99.90;;;;;;5052148;28;20462;-72
2021/10/18 11:24:02;;;;;;;13.10;10.20;;;16.90;99.90;;;;;;5051457;28;20470;-72
2021/10/18 11:26:30;;;;;;;14.33;11.20;;;17.40;99.90;;;;;;5051158;28;20483;-72
2021/10/18 11:29:00;;;;;;;13.80;10.63;;;18.00;99.90;;;;;;5051295;28;20487;-72
2021/10/18 11:31:29;;;;;;;13.20;10.33;;;18.40;99.90;;;;;;5051360;28;20463;-72
2021/10/18 11:34:01;;;;;;;12.50;10.50;;;18.70;99.90;;;;;;5051396;28;20463;-72
2021/10/18 11:36:28;;;;;;;12.10;10.10;;;18.90;99.90;;;;;;5051044;28;20475;-72
2021/10/18 11:39:07;;;;;;;13.30;10.23;;;19.30;99.90;;;;;;5051158;28;20459;-72
2021/10/18 11:42:05;;;;;;;13.43;10.70;;;19.50;99.90;;;;;;5051952;28;20813;-72
2021/10/18 11:44:47;;;;;;;11.90;10.13;;;19.70;99.90;;;;;;5051033;28;20527;-72
2021/10/18 11:47:28;;;;;;;10.83;8.70;;;20.00;99.90;;;;;;5050787;28;20467;-72
2021/10/18 11:50:15;;;;;;;10.30;8.90;;;20.20;99.90;;;;;;5050637;28;20480;-72
2021/10/18 11:52:44;;;;;;;10.97;8.53;;;20.60;99.90;;;;;;5051501;28;20459;-72
2021/10/18 11:55:13;;;;;;;10.20;9.07;;;20.70;99.90;;;;;;5050526;28;20576;-72
2021/10/18 11:57:43;;;;;;;11.90;9.60;;;20.70;99.90;;;;;;5050702;28;20859;-72
2021/10/18 12:00:14;;;;;;;11.23;9.47;;;20.80;99.90;;;;;;5050950;28;20460;-72
2021/10/18 12:02:43;;;;;;;11.60;9.63;;;21.00;99.90;;;;;;5050891;28;20476;-73
2021/10/18 12:05:10;;;;;;;13.03;9.20;;;20.90;99.90;;;;;;5050713;28;20483;-72
2021/10/18 12:07:45;;;;;;;10.00;8.07;;;20.70;99.90;;;;;;5050096;28;20491;-72
2021/10/18 12:10:24;;;;;;;9.40;8.23;;;20.70;99.90;;;;;;5051144;28;20487;-72
2021/10/18 12:13:18;;;;;;;11.17;8.37;;;20.60;99.90;;;;;;5049488;28;20951;-72
2021/10/18 12:15:52;;;;;;;9.17;8.27;;;20.70;99.90;;;;;;5050594;28;20567;-72
2021/10/18 12:18:21;;;;;;;9.90;8.90;;;20.70;99.90;;;;;;5051275;28;20897;-72
2021/10/18 12:20:50;;;;;;;9.33;8.43;;;20.40;99.90;;;;;;5050113;28;20455;-72
2021/10/18 12:23:20;;;;;;;8.93;7.97;;;19.90;99.90;;;;;;5050879;28;20495;-72
2021/10/18 12:25:56;;;;;;;10.23;8.90;;;19.80;99.90;;;;;;5049702;28;20484;-72
2021/10/18 12:28:37;;;;;;;12.73;9.53;;;19.80;99.90;;;;;;5049635;28;20483;-72
2021/10/18 12:31:05;;;;;;;11.67;8.80;;;19.60;99.90;;;;;;5049709;28;20459;-72
2021/10/18 12:33:39;;;;;;;11.13;8.37;;;19.40;99.90;;;;;;5050307;28;20467;-72
2021/10/18 12:36:06;;;;;;;9.57;8.00;;;19.30;99.90;;;;;;5049508;28;20922;-73
2021/10/18 12:38:36;;;;;;;8.60;7.60;;;19.20;99.90;;;;;;5050065;28;20462;-72
2021/10/18 12:41:15;;;;;;;8.93;7.87;;;19.20;99.90;;;;;;5050036;28;20455;-72
2021/10/18 12:43:43;;;;;;;8.00;7.20;;;19.00;99.90;;;;;;5049778;28;20463;-73
2021/10/18 12:46:26;;;;;;;12.10;9.57;;;18.90;99.90;;;;;;5049448;28;20483;-72
2021/10/18 12:49:01;;;;;;;11.20;8.37;;;18.80;99.90;;;;;;5049917;28;20486;-72
2021/10/18 12:51:32;;;;;;;8.47;7.60;;;18.70;99.90;;;;;;5049901;28;20494;-72
2021/10/18 12:53:59;;;;;;;9.67;8.67;;;18.60;99.90;;;;;;5049931;28;20474;-72
2021/10/18 12:56:28;;;;;;;10.40;8.57;;;18.50;99.90;;;;;;5049242;28;20570;-72
2021/10/18 12:59:07;;;;;;;9.57;8.13;;;18.40;99.90;;;;;;5049790;28;20456;-73
2021/10/18 13:01:35;;;;;;;10.17;8.50;;;18.30;99.90;;;;;;5043952;28;20464;-72
2021/10/18 13:04:16;;;;;;;9.07;7.83;;;18.20;99.90;;;;;;5029712;28;20476;-72
2021/10/18 13:06:43;;;;;;;10.63;8.60;;;18.00;99.90;;;;;;5029356;28;20471;-72
2021/10/18 13:09:10;;;;;;;9.47;7.73;;;17.80;99.90;;;;;;5041697;28;20514;-72
2021/10/18 13:11:40;;;;;;;9.00;6.90;;;17.60;99.90;;;;;;5049171;28;20478;-72
2021/10/18 13:14:07;;;;;;;13.33;10.40;;;17.40;99.90;;;;;;5041232;28;20471;-72
2021/10/18 13:16:35;;;;;;;11.33;9.57;;;17.20;99.90;;;;;;5028660;28;21015;-72
2021/10/18 13:19:02;;;;;;;10.23;9.13;;;17.10;99.90;;;;;;5028981;28;20951;-72
2021/10/18 13:21:30;;;;;;;10.03;8.50;;;17.00;99.90;;;;;;5028821;28;20471;-72
2021/10/18 13:23:57;;;;;;;10.63;7.70;;;17.00;99.90;;;;;;5028810;28;20948;-72
2021/10/18 13:26:23;;;;;;;14.60;8.73;;;16.90;99.90;;;;;;5028119;28;21030;-72
2021/10/18 13:28:50;;;;;;;10.43;8.77;;;16.70;99.90;;;;;;5028799;28;20483;-72
2021/10/18 13:31:17;;;;;;;11.57;7.90;;;16.60;99.90;;;;;;5028697;28;20468;-72
2021/10/18 13:33:45;;;;;;;13.57;10.00;;;16.40;99.90;;;;;;5028977;28;20959;-72
2021/10/18 13:36:11;;;;;;;10.77;9.10;;;16.30;99.90;;;;;;5028303;28;20567;-72
2021/10/18 13:38:38;;;;;;;8.80;7.43;;;16.10;99.90;;;;;;5028674;28;20516;-72
2021/10/18 13:41:05;;;;;;;11.87;8.03;;;16.00;99.90;;;;;;5028569;28;20461;-72
2021/10/18 13:43:33;;;;;;;8.90;7.70;;;16.00;99.90;;;;;;5028518;28;20468;-72
2021/10/18 13:46:00;;;;;;;10.10;7.37;;;15.90;99.90;;;;;;5028143;28;20784;-72
2021/10/18 13:48:26;;;;;;;10.33;7.93;;;15.90;99.90;;;;;;5028929;28;21216;-72
2021/10/18 13:50:55;;;;;;;13.07;9.00;;;15.90;99.90;;;;;;5038243;28;20463;-72
2021/10/18 13:53:21;;;;;;;11.80;8.87;;;15.90;99.90;;;;;;5048753;28;20460;-72